Time;durP1;ratioP1;P1;durP2;ratioP2;P2;SDS_P1;SDS_P2;PMS_P1;PMS_P2;Temp;Humidity;BMP_temperature;BMP_pressure;BME280_temperature;BME280_humidity;BME280_pressure;Samples;Min_cycle;Max_cycle;Signal;HPM_P1;HPM_P2
2022/10/20 00:01:34;;;;;;;1.65;1.08;;;12.90;71.30;;;;;;5023277;28;20029;-78
2022/10/20 00:04:01;;;;;;;1.83;1.15;;;12.80;70.60;;;;;;5027328;28;20029;-78
2022/10/20 00:06:29;;;;;;;1.40;1.05;;;12.80;70.30;;;;;;5028628;28;20171;-78
2022/10/20 00:08:58;;;;;;;2.45;1.30;;;12.80;70.50;;;;;;5028177;28;20520;-78
2022/10/20 00:11:25;;;;;;;1.80;1.15;;;12.80;70.50;;;;;;5027370;28;20036;-77
2022/10/20 00:13:53;;;;;;;0.88;0.82;;;12.80;70.50;;;;;;5027607;28;20432;-78
2022/10/20 00:16:20;;;;;;;1.63;1.10;;;12.80;70.50;;;;;;5027241;28;20049;-78
2022/10/20 00:18:46;;;;;;;3.55;1.20;;;12.80;70.50;;;;;;5027822;28;20038;-79
2022/10/20 00:21:17;;;;;;;1.50;1.17;;;12.80;70.50;;;;;;5027608;28;20052;-78
2022/10/20 00:23:43;;;;;;;1.63;1.20;;;12.80;70.60;;;;;;5028016;28;20056;-78
2022/10/20 00:26:21;;;;;;;1.98;1.70;;;12.70;70.60;;;;;;5028160;28;20508;-78
2022/10/20 00:28:47;;;;;;;1.70;1.25;;;12.70;70.70;;;;;;5027234;28;20065;-78
2022/10/20 00:31:14;;;;;;;1.80;0.98;;;12.70;70.70;;;;;;5027928;28;20091;-77
2022/10/20 00:33:40;;;;;;;1.92;1.30;;;12.70;70.80;;;;;;5025823;28;20136;-78
2022/10/20 00:36:09;;;;;;;2.80;1.23;;;12.80;70.80;;;;;;5026710;28;20037;-79
2022/10/20 00:38:35;;;;;;;1.10;1.00;;;12.70;70.90;;;;;;5026663;28;20041;-78
2022/10/20 00:41:05;;;;;;;1.20;1.02;;;12.70;70.90;;;;;;5009512;28;20036;-78
2022/10/20 00:44:21;;;;;;;1.30;1.20;;;12.70;70.90;;;;;;5027725;28;20064;-77
2022/10/20 00:46:47;;;;;;;4.57;1.87;;;12.70;71.10;;;;;;5003937;28;20104;-77
2022/10/20 00:49:24;;;;;;;1.42;1.20;;;12.70;71.20;;;;;;4988693;28;20327;-78
2022/10/20 00:51:52;;;;;;;1.60;1.10;;;12.60;71.20;;;;;;5004913;28;20504;-77
2022/10/20 00:54:23;;;;;;;1.45;1.20;;;12.70;71.50;;;;;;5004424;28;20044;-77
2022/10/20 00:56:50;;;;;;;1.10;1.00;;;12.70;71.70;;;;;;4988178;28;20065;-77
2022/10/20 00:59:21;;;;;;;1.73;0.93;;;12.70;71.70;;;;;;5004405;28;20030;-76
2022/10/20 01:01:47;;;;;;;0.73;0.73;;;12.70;71.70;;;;;;5004864;28;20129;-77
2022/10/20 01:04:14;;;;;;;0.93;0.93;;;12.70;71.70;;;;;;4988480;28;20528;-76
2022/10/20 01:06:40;;;;;;;1.20;1.10;;;12.70;71.70;;;;;;5007364;28;20575;-77
2022/10/20 01:09:06;;;;;;;1.17;1.05;;;12.70;71.60;;;;;;4993467;28;20164;-77
2022/10/20 01:11:41;;;;;;;0.80;0.73;;;12.70;71.60;;;;;;5009281;28;20528;-76
2022/10/20 01:14:33;;;;;;;1.45;0.90;;;12.60;71.50;;;;;;5004318;28;20910;-76
2022/10/20 01:17:23;;;;;;;2.58;1.02;;;12.60;71.50;;;;;;5003843;28;20595;-77
2022/10/20 01:20:17;;;;;;;0.80;0.80;;;12.60;71.50;;;;;;4987988;28;20420;-76
2022/10/20 01:23:01;;;;;;;0.93;0.93;;;12.60;71.50;;;;;;5015277;28;20060;-76
2022/10/20 01:25:48;;;;;;;1.45;1.20;;;12.60;71.40;;;;;;5026862;28;20087;-76
2022/10/20 01:28:28;;;;;;;1.95;1.10;;;12.60;71.50;;;;;;5025933;28;20049;-76
2022/10/20 01:31:00;;;;;;;2.58;1.63;;;12.60;71.70;;;;;;5025708;28;20172;-76
2022/10/20 01:33:38;;;;;;;2.00;1.38;;;12.60;71.90;;;;;;5026095;28;20565;-77
2022/10/20 01:36:14;;;;;;;1.10;1.00;;;12.60;72.00;;;;;;5025505;28;20521;-76
2022/10/20 01:38:53;;;;;;;1.33;1.23;;;12.60;72.10;;;;;;5024177;28;20033;-77
2022/10/20 01:41:45;;;;;;;2.65;1.40;;;12.60;72.20;;;;;;5026161;28;20033;-77
2022/10/20 01:44:15;;;;;;;2.55;1.02;;;12.60;72.20;;;;;;5025964;28;20033;-77
2022/10/20 01:46:43;;;;;;;1.42;1.20;;;12.60;72.70;;;;;;5019670;28;20037;-77
2022/10/20 01:49:10;;;;;;;1.52;1.42;;;12.60;72.20;;;;;;5025279;28;20036;-77
2022/10/20 01:51:36;;;;;;;1.95;1.05;;;12.60;72.20;;;;;;5004023;28;20045;-77
2022/10/20 01:54:02;;;;;;;1.42;1.00;;;12.50;72.30;;;;;;5024725;28;20037;-77
2022/10/20 01:56:47;;;;;;;1.70;1.38;;;12.60;72.40;;;;;;5026143;28;20037;-77
2022/10/20 01:59:27;;;;;;;1.80;1.00;;;12.60;72.40;;;;;;5019620;28;20030;-79
2022/10/20 02:02:18;;;;;;;1.20;1.10;;;12.60;72.40;;;;;;5025266;28;20037;-78
2022/10/20 02:05:04;;;;;;;1.60;1.38;;;12.60;72.40;;;;;;5025300;28;20029;-76
2022/10/20 02:07:32;;;;;;;3.63;1.08;;;12.60;72.30;;;;;;5025646;28;20072;-78
2022/10/20 02:10:11;;;;;;;1.02;0.98;;;12.60;72.30;;;;;;5019678;28;20041;-76
2022/10/20 02:12:41;;;;;;;2.13;1.20;;;12.60;72.30;;;;;;5025673;28;20424;-77
2022/10/20 02:15:11;;;;;;;1.73;0.85;;;12.60;72.40;;;;;;5025447;28;20107;-76
2022/10/20 02:17:39;;;;;;;1.35;1.13;;;12.60;72.30;;;;;;5024926;28;20953;-75
2022/10/20 02:20:07;;;;;;;3.38;1.00;;;12.60;72.30;;;;;;5024724;28;20030;-78
2022/10/20 02:22:34;;;;;;;1.00;0.82;;;12.60;72.20;;;;;;5024250;28;20033;-78
2022/10/20 02:25:00;;;;;;;2.47;1.13;;;12.60;72.20;;;;;;5024559;28;20037;-78
2022/10/20 02:27:34;;;;;;;1.48;1.00;;;12.60;72.10;;;;;;5023917;28;20483;-77
2022/10/20 02:30:05;;;;;;;1.65;1.05;;;12.60;72.10;;;;;;5024069;28;20488;-77
2022/10/20 02:32:32;;;;;;;1.15;1.05;;;12.60;72.00;;;;;;5025168;28;21412;-77
2022/10/20 02:34:58;;;;;;;3.17;1.20;;;12.60;72.00;;;;;;5025049;28;20037;-78
2022/10/20 02:37:24;;;;;;;3.05;1.50;;;12.60;72.10;;;;;;5025077;28;20034;-76
2022/10/20 02:39:50;;;;;;;2.05;1.17;;;12.60;72.00;;;;;;5007842;28;20172;-78
2022/10/20 02:42:16;;;;;;;1.55;1.20;;;12.60;72.00;;;;;;5023846;28;20112;-78
2022/10/20 02:44:42;;;;;;;3.03;1.20;;;12.60;72.00;;;;;;5025091;28;20036;-77
2022/10/20 02:47:08;;;;;;;2.25;1.27;;;12.60;72.10;;;;;;5025537;28;20040;-77
2022/10/20 02:49:34;;;;;;;1.42;1.33;;;12.60;72.30;;;;;;5025058;28;20022;-78
2022/10/20 02:52:00;;;;;;;1.60;1.50;;;12.60;72.40;;;;;;5023735;28;20035;-78
2022/10/20 02:54:27;;;;;;;2.05;1.50;;;12.60;72.50;;;;;;5024079;28;20404;-77
2022/10/20 02:56:53;;;;;;;1.90;1.67;;;12.60;72.60;;;;;;5023122;28;20524;-76
2022/10/20 02:59:19;;;;;;;2.38;1.60;;;12.60;72.60;;;;;;5024012;28;20426;-77
2022/10/20 03:01:46;;;;;;;1.92;1.70;;;12.60;72.80;;;;;;5024213;28;20045;-77
2022/10/20 03:04:13;;;;;;;2.05;1.65;;;12.60;72.70;;;;;;5024833;28;20455;-77
2022/10/20 03:06:40;;;;;;;1.98;1.50;;;12.50;72.60;;;;;;5024990;28;20179;-76
2022/10/20 03:09:06;;;;;;;3.42;2.45;;;12.50;72.70;;;;;;5024516;28;20044;-77
2022/10/20 03:11:32;;;;;;;4.15;2.17;;;12.50;72.60;;;;;;5006893;28;20041;-77
2022/10/20 03:13:58;;;;;;;5.57;2.28;;;12.50;72.70;;;;;;5024841;28;20044;-77
2022/10/20 03:16:24;;;;;;;2.72;2.35;;;12.60;72.90;;;;;;5024378;28;20041;-77
2022/10/20 03:18:50;;;;;;;3.05;2.60;;;12.50;72.90;;;;;;5025141;28;20037;-77
2022/10/20 03:21:16;;;;;;;3.05;2.50;;;12.50;73.00;;;;;;5024642;28;20037;-76
2022/10/20 03:23:42;;;;;;;4.00;2.97;;;12.50;73.10;;;;;;5025059;28;20404;-75
2022/10/20 03:26:10;;;;;;;3.10;2.80;;;12.50;73.10;;;;;;5024908;28;20033;-76
2022/10/20 03:28:37;;;;;;;4.47;2.92;;;12.50;73.10;;;;;;5024543;28;20029;-75
2022/10/20 03:31:03;;;;;;;4.55;3.40;;;12.50;73.10;;;;;;5027808;28;20030;-75
2022/10/20 03:33:29;;;;;;;3.95;2.85;;;12.50;73.20;;;;;;5042874;28;20040;-75
2022/10/20 03:35:55;;;;;;;4.68;2.97;;;12.50;73.30;;;;;;5028240;28;20038;-78
2022/10/20 03:38:21;;;;;;;3.80;3.38;;;12.50;73.20;;;;;;5027157;28;20419;-77
2022/10/20 03:40:48;;;;;;;6.05;3.63;;;12.50;73.20;;;;;;4994260;28;20567;-78
2022/10/20 03:43:16;;;;;;;3.67;3.33;;;12.50;73.90;;;;;;5026782;28;20033;-78
2022/10/20 03:45:43;;;;;;;4.15;3.05;;;12.50;73.30;;;;;;5028429;28;20032;-76
2022/10/20 03:48:10;;;;;;;5.10;3.60;;;12.50;73.40;;;;;;5026217;28;20148;-76
2022/10/20 03:50:41;;;;;;;5.57;3.88;;;12.40;73.40;;;;;;5028283;28;20037;-79
2022/10/20 03:53:10;;;;;;;4.07;3.72;;;12.50;73.50;;;;;;5027741;28;20039;-77
2022/10/20 03:55:36;;;;;;;4.35;3.65;;;12.50;73.50;;;;;;5027202;28;20052;-77
2022/10/20 03:58:02;;;;;;;4.40;3.92;;;12.50;73.60;;;;;;5028465;28;20033;-77
2022/10/20 04:00:28;;;;;;;4.63;3.38;;;12.50;73.60;;;;;;5026901;28;20124;-77
2022/10/20 04:02:54;;;;;;;4.40;3.40;;;12.50;73.60;;;;;;5027035;28;20485;-76
2022/10/20 04:05:20;;;;;;;5.25;3.90;;;12.50;73.50;;;;;;5027742;28;20041;-77
2022/10/20 04:07:46;;;;;;;5.22;4.20;;;12.50;73.50;;;;;;5010327;28;20426;-78
2022/10/20 04:10:15;;;;;;;4.47;3.30;;;12.50;73.40;;;;;;5028007;28;20059;-78
2022/10/20 04:12:41;;;;;;;5.07;4.20;;;12.50;73.40;;;;;;5028016;28;20029;-79
2022/10/20 04:15:08;;;;;;;8.48;3.85;;;12.50;73.40;;;;;;5027111;28;20041;-80
2022/10/20 04:17:35;;;;;;;3.92;3.30;;;12.50;73.30;;;;;;5009669;28;20041;-79
2022/10/20 04:20:02;;;;;;;4.22;3.50;;;12.50;73.20;;;;;;5026148;28;20037;-77
2022/10/20 04:22:28;;;;;;;4.43;4.03;;;12.50;73.30;;;;;;5028063;28;20030;-74
2022/10/20 04:24:54;;;;;;;5.18;3.50;;;12.50;73.30;;;;;;5027521;28;20136;-76
2022/10/20 04:27:20;;;;;;;4.53;4.03;;;12.50;73.20;;;;;;5027561;28;20112;-75
2022/10/20 04:29:47;;;;;;;6.70;4.15;;;12.50;73.20;;;;;;5027886;28;20036;-76
2022/10/20 04:32:12;;;;;;;4.45;3.58;;;12.50;73.10;;;;;;5025525;28;20038;-80
2022/10/20 04:34:38;;;;;;;3.50;3.00;;;12.50;73.20;;;;;;5028042;28;20075;-77
2022/10/20 04:37:04;;;;;;;3.85;3.30;;;12.50;73.20;;;;;;5026041;28;20043;-78
2022/10/20 04:39:30;;;;;;;7.88;3.20;;;12.50;73.70;;;;;;5027075;28;20116;-80
2022/10/20 04:41:57;;;;;;;3.83;3.50;;;12.60;74.10;;;;;;5021472;28;20026;-77
2022/10/20 04:44:23;;;;;;;4.72;3.90;;;12.60;73.90;;;;;;5026018;28;20543;-75
2022/10/20 04:46:49;;;;;;;5.95;3.60;;;12.60;73.60;;;;;;5026671;28;20033;-76
2022/10/20 04:49:14;;;;;;;4.28;3.53;;;12.60;73.50;;;;;;5009424;28;20068;-75
2022/10/20 04:51:40;;;;;;;5.28;3.50;;;12.50;73.30;;;;;;5026637;28;20078;-75
2022/10/20 04:54:06;;;;;;;4.13;3.10;;;12.60;73.30;;;;;;5025575;28;20038;-77
2022/10/20 04:56:32;;;;;;;10.57;3.78;;;12.50;73.60;;;;;;5028484;28;20042;-76
2022/10/20 04:58:58;;;;;;;6.13;3.60;;;12.50;74.30;;;;;;5042023;28;20163;-77
2022/10/20 05:01:27;;;;;;;5.88;4.40;;;12.60;74.90;;;;;;5026748;28;20030;-78
2022/10/20 05:03:53;;;;;;;7.00;4.25;;;12.60;75.40;;;;;;5025026;28;20046;-76
2022/10/20 05:06:30;;;;;;;6.82;4.60;;;12.50;75.30;;;;;;5004970;28;20295;-75
2022/10/20 05:08:59;;;;;;;7.28;4.57;;;12.50;75.60;;;;;;5008246;28;20044;-75
2022/10/20 05:11:28;;;;;;;8.20;5.05;;;12.60;76.40;;;;;;5025592;28;20088;-76
2022/10/20 05:13:54;;;;;;;7.75;4.55;;;12.60;76.10;;;;;;5026346;28;20382;-75
2022/10/20 05:16:20;;;;;;;8.98;5.10;;;12.60;76.60;;;;;;5026895;28;20484;-75
2022/10/20 05:18:47;;;;;;;9.60;4.70;;;12.60;76.50;;;;;;5026740;28;20056;-76
2022/10/20 05:21:16;;;;;;;9.15;4.78;;;12.50;76.30;;;;;;5024231;28;20031;-74
2022/10/20 05:23:42;;;;;;;9.75;4.95;;;12.60;76.10;;;;;;5025710;28;20037;-76
2022/10/20 05:26:14;;;;;;;7.65;4.55;;;12.60;76.00;;;;;;5026944;28;20034;-75
2022/10/20 05:28:43;;;;;;;7.13;4.45;;;12.60;75.70;;;;;;5026115;28;20141;-74
2022/10/20 05:31:09;;;;;;;9.95;4.15;;;12.50;75.40;;;;;;5026854;28;20087;-75
2022/10/20 05:33:38;;;;;;;8.55;4.35;;;12.60;75.00;;;;;;5025391;28;21106;-75
2022/10/20 05:36:09;;;;;;;6.75;3.90;;;12.50;74.80;;;;;;5020294;28;20033;-75
2022/10/20 05:38:35;;;;;;;6.75;3.70;;;12.60;74.90;;;;;;5024786;28;20503;-75
2022/10/20 05:41:16;;;;;;;5.90;4.07;;;12.50;74.90;;;;;;5021174;28;20091;-75
2022/10/20 05:43:47;;;;;;;5.15;4.00;;;12.50;74.70;;;;;;5025775;28;20029;-75
2022/10/20 05:46:13;;;;;;;4.78;3.40;;;12.50;74.60;;;;;;5025749;28;20057;-75
2022/10/20 05:48:39;;;;;;;6.50;4.05;;;12.60;74.60;;;;;;5024383;28;20068;-76
2022/10/20 05:51:09;;;;;;;6.90;3.58;;;12.60;74.40;;;;;;5025397;28;20148;-76
2022/10/20 05:53:36;;;;;;;5.65;3.78;;;12.60;74.10;;;;;;5024119;28;20638;-76
2022/10/20 05:56:03;;;;;;;4.97;3.03;;;12.60;74.00;;;;;;5025569;28;20045;-77
2022/10/20 05:58:29;;;;;;;9.23;3.55;;;12.60;73.80;;;;;;5026348;28;20041;-77
2022/10/20 06:01:16;;;;;;;4.93;3.67;;;12.50;73.70;;;;;;5025510;28;20048;-80
2022/10/20 06:03:45;;;;;;;5.88;3.53;;;12.60;74.00;;;;;;5024462;28;20032;-79
2022/10/20 06:06:11;;;;;;;6.57;3.78;;;12.60;73.80;;;;;;5024438;28;20415;-77
2022/10/20 06:08:37;;;;;;;4.25;3.25;;;12.60;73.70;;;;;;5023858;28;20033;-74
2022/10/20 06:11:06;;;;;;;5.47;2.97;;;12.60;73.80;;;;;;5008216;28;20462;-80
2022/10/20 06:13:32;;;;;;;4.88;3.20;;;12.60;73.60;;;;;;5025054;28;20040;-78
2022/10/20 06:16:19;;;;;;;4.57;2.92;;;12.60;73.00;;;;;;5024735;28;20045;-80
2022/10/20 06:18:45;;;;;;;4.85;2.53;;;12.60;72.40;;;;;;5002276;28;20145;-79
2022/10/20 06:21:14;;;;;;;4.72;2.92;;;12.60;72.30;;;;;;5008196;28;20079;-78
2022/10/20 06:23:40;;;;;;;3.42;2.33;;;12.60;72.20;;;;;;5038237;28;20475;-77
2022/10/20 06:26:08;;;;;;;3.30;2.20;;;12.60;71.90;;;;;;5025631;28;20116;-78
2022/10/20 06:28:36;;;;;;;3.85;2.55;;;12.60;71.40;;;;;;5025219;28;20030;-79
2022/10/20 06:31:13;;;;;;;3.50;2.20;;;12.70;70.70;;;;;;5025771;28;20056;-77
2022/10/20 06:33:38;;;;;;;3.15;2.28;;;12.60;70.50;;;;;;5025329;28;20121;-79
2022/10/20 06:36:04;;;;;;;3.30;2.20;;;12.60;70.00;;;;;;5025543;28;20124;-77
2022/10/20 06:38:30;;;;;;;3.25;2.33;;;12.60;69.70;;;;;;5025051;28;20121;-77
2022/10/20 06:41:02;;;;;;;4.18;2.05;;;12.70;69.50;;;;;;5025007;28;20128;-78
2022/10/20 06:43:29;;;;;;;2.45;2.00;;;12.70;69.20;;;;;;5025311;28;20083;-76
2022/10/20 06:45:57;;;;;;;2.55;1.92;;;12.70;69.30;;;;;;5025409;28;20119;-77
2022/10/20 06:48:24;;;;;;;2.42;1.65;;;12.70;69.30;;;;;;5023078;28;20036;-77
2022/10/20 06:50:54;;;;;;;3.80;2.20;;;12.70;68.80;;;;;;5025052;28;20032;-79
2022/10/20 06:53:20;;;;;;;3.92;2.30;;;12.70;68.10;;;;;;5024957;28;20026;-79
2022/10/20 06:55:58;;;;;;;2.53;2.15;;;12.80;67.90;;;;;;5024036;28;20041;-79
2022/10/20 06:58:24;;;;;;;3.58;1.85;;;12.80;68.10;;;;;;5007454;28;20041;-79
2022/10/20 07:01:05;;;;;;;3.17;2.25;;;12.80;68.20;;;;;;5025023;28;20087;-80
2022/10/20 07:03:33;;;;;;;2.42;1.67;;;12.90;68.00;;;;;;5036656;28;20029;-79
2022/10/20 07:05:59;;;;;;;2.72;2.05;;;12.80;67.50;;;;;;5026885;28;20450;-78
2022/10/20 07:08:30;;;;;;;2.20;1.80;;;12.90;67.80;;;;;;5021930;28;20046;-76
2022/10/20 07:11:01;;;;;;;4.75;2.00;;;12.90;67.70;;;;;;5028340;28;20519;-80
2022/10/20 07:13:28;;;;;;;2.03;1.40;;;12.90;67.60;;;;;;5028756;28;20496;-79
2022/10/20 07:15:56;;;;;;;1.60;1.40;;;13.10;67.60;;;;;;5026890;28;20707;-77
2022/10/20 07:18:24;;;;;;;1.75;1.60;;;13.20;67.00;;;;;;5028287;28;20599;-77
2022/10/20 07:20:50;;;;;;;1.88;1.65;;;13.30;66.60;;;;;;5027256;28;20068;-79
2022/10/20 07:23:16;;;;;;;2.80;1.70;;;13.50;66.90;;;;;;5028033;28;20034;-77
2022/10/20 07:25:42;;;;;;;2.35;1.77;;;13.60;64.70;;;;;;5028841;28;20491;-77
2022/10/20 07:28:08;;;;;;;4.55;1.60;;;13.70;64.70;;;;;;5029845;28;20029;-76
2022/10/20 07:30:39;;;;;;;3.72;1.95;;;13.90;64.60;;;;;;5026860;28;20695;-78
2022/10/20 07:33:05;;;;;;;1.55;1.40;;;14.00;64.90;;;;;;5028907;28;20447;-77
2022/10/20 07:35:31;;;;;;;1.90;1.30;;;14.10;64.70;;;;;;5028462;28;20507;-77
2022/10/20 07:37:57;;;;;;;1.98;1.52;;;14.20;63.80;;;;;;5027936;28;20423;-79
2022/10/20 07:40:23;;;;;;;1.40;1.20;;;14.20;63.50;;;;;;5028795;28;20033;-77
2022/10/20 07:42:49;;;;;;;1.50;1.30;;;14.20;62.40;;;;;;5028813;28;20119;-77
2022/10/20 07:45:15;;;;;;;1.40;1.30;;;14.20;62.40;;;;;;5028037;28;20037;-78
2022/10/20 07:47:41;;;;;;;2.25;1.23;;;14.20;61.50;;;;;;5027429;28;20524;-78
2022/10/20 07:50:08;;;;;;;1.55;1.13;;;14.30;61.00;;;;;;5028359;28;20091;-79
2022/10/20 07:52:34;;;;;;;1.88;1.30;;;14.30;61.20;;;;;;5027918;28;20052;-77
2022/10/20 07:54:59;;;;;;;2.15;1.35;;;14.30;60.70;;;;;;5027697;28;20527;-78
2022/10/20 07:57:25;;;;;;;1.40;1.30;;;14.30;60.60;;;;;;5021038;28;20199;-77
2022/10/20 07:59:51;;;;;;;2.60;1.58;;;14.20;59.90;;;;;;5027896;28;20107;-78
2022/10/20 08:02:19;;;;;;;2.80;1.45;;;14.30;60.00;;;;;;5023534;28;20033;-77
2022/10/20 08:04:45;;;;;;;2.42;1.70;;;14.20;59.60;;;;;;5027898;28;20030;-76
2022/10/20 08:07:11;;;;;;;1.40;1.30;;;14.20;59.80;;;;;;5028332;28;20049;-78
2022/10/20 08:09:37;;;;;;;1.40;1.10;;;14.20;60.20;;;;;;5009506;28;20045;-79
2022/10/20 08:12:04;;;;;;;1.52;1.42;;;14.20;60.20;;;;;;5026660;28;20523;-78
2022/10/20 08:14:32;;;;;;;1.25;1.20;;;14.20;59.40;;;;;;5027537;28;20517;-78
2022/10/20 08:16:59;;;;;;;4.00;1.60;;;14.20;59.30;;;;;;5025920;28;20068;-78
2022/10/20 08:19:25;;;;;;;2.45;1.55;;;14.10;60.00;;;;;;5028177;28;20037;-76
2022/10/20 08:21:52;;;;;;;2.33;1.42;;;14.10;58.50;;;;;;5026295;28;20042;-78
2022/10/20 08:24:18;;;;;;;2.97;1.38;;;14.00;58.60;;;;;;5026150;28;20087;-79
2022/10/20 08:26:44;;;;;;;5.10;1.65;;;14.00;58.80;;;;;;5027464;28;20634;-80
2022/10/20 08:29:11;;;;;;;2.78;1.60;;;13.90;59.20;;;;;;5026868;28;20124;-80
2022/10/20 08:31:38;;;;;;;1.63;1.50;;;13.90;59.50;;;;;;5025362;28;20041;-80
2022/10/20 08:34:04;;;;;;;3.38;1.83;;;13.90;59.20;;;;;;5026696;28;20551;-79
2022/10/20 08:36:30;;;;;;;2.20;1.40;;;13.90;59.00;;;;;;5025904;28;20124;-79
2022/10/20 08:38:58;;;;;;;1.80;1.45;;;13.80;59.20;;;;;;5026859;28;20171;-78
2022/10/20 08:41:27;;;;;;;2.30;1.55;;;13.80;59.50;;;;;;5027385;28;20053;-82
2022/10/20 08:43:56;;;;;;;2.05;1.70;;;13.80;59.70;;;;;;5026367;28;20207;-78
2022/10/20 08:46:36;;;;;;;2.95;1.55;;;13.80;59.80;;;;;;5041955;28;20033;-77
2022/10/20 08:49:06;;;;;;;1.75;1.50;;;13.80;59.70;;;;;;5009511;28;20152;-80
2022/10/20 08:51:37;;;;;;;1.70;1.30;;;13.70;59.70;;;;;;5027733;28;20544;-79
2022/10/20 08:54:10;;;;;;;2.00;1.58;;;13.70;59.80;;;;;;5028141;28;20029;-81
2022/10/20 08:56:36;;;;;;;1.48;1.30;;;13.60;60.00;;;;;;5026899;28;20076;-83
2022/10/20 08:59:02;;;;;;;2.42;1.42;;;13.70;60.60;;;;;;5025691;28;20492;-82
2022/10/20 09:01:33;;;;;;;2.25;1.63;;;13.60;60.80;;;;;;5026783;28;20052;-81
2022/10/20 09:04:20;;;;;;;2.00;1.83;;;13.60;61.00;;;;;;5026873;28;20030;-81
2022/10/20 09:06:52;;;;;;;2.63;1.73;;;13.60;61.10;;;;;;5025879;28;20041;-81
2022/10/20 09:09:20;;;;;;;3.33;2.10;;;13.60;60.80;;;;;;5026249;28;20041;-81
2022/10/20 09:11:47;;;;;;;3.33;2.47;;;13.60;60.60;;;;;;5026266;28;20037;-81
2022/10/20 09:14:15;;;;;;;2.28;2.00;;;13.50;60.10;;;;;;5026391;28;20038;-77
2022/10/20 09:16:45;;;;;;;2.42;1.98;;;13.50;60.50;;;;;;5025371;28;20049;-79
2022/10/20 09:19:22;;;;;;;2.92;2.00;;;13.50;60.70;;;;;;5027019;28;20029;-79
2022/10/20 09:21:54;;;;;;;2.05;1.85;;;13.60;60.90;;;;;;5036557;28;20117;-79
2022/10/20 09:24:21;;;;;;;4.10;2.17;;;13.50;60.50;;;;;;5025064;28;20040;-79
2022/10/20 09:26:49;;;;;;;2.40;1.75;;;13.50;59.90;;;;;;5026522;28;20038;-79
2022/10/20 09:29:18;;;;;;;2.75;1.65;;;13.50;59.80;;;;;;5025847;28;20511;-79
2022/10/20 09:31:50;;;;;;;2.60;1.70;;;13.50;59.40;;;;;;5025969;28;20033;-80
2022/10/20 09:34:26;;;;;;;2.30;1.67;;;13.50;59.20;;;;;;5026150;28;20120;-77
2022/10/20 09:37:07;;;;;;;3.42;1.80;;;13.50;59.10;;;;;;5024449;28;20531;-77
2022/10/20 09:39:46;;;;;;;2.10;1.60;;;13.50;59.10;;;;;;5024629;28;20033;-76
2022/10/20 09:42:34;;;;;;;1.98;1.67;;;13.40;59.20;;;;;;5025978;28;20060;-79
2022/10/20 09:45:21;;;;;;;2.15;1.30;;;13.40;59.30;;;;;;5025080;28;20030;-80
2022/10/20 09:47:53;;;;;;;2.53;1.60;;;13.40;59.70;;;;;;5025602;28;20026;-82
2022/10/20 09:50:28;;;;;;;2.05;1.40;;;13.40;59.80;;;;;;5025627;28;20459;-77
2022/10/20 09:52:54;;;;;;;1.85;1.30;;;13.40;59.50;;;;;;5024533;28;20029;-80
2022/10/20 09:55:26;;;;;;;2.45;1.40;;;13.40;58.60;;;;;;5004614;28;20026;-78
2022/10/20 09:57:54;;;;;;;2.47;1.63;;;13.30;58.50;;;;;;5004083;28;20869;-78
2022/10/20 10:00:28;;;;;;;1.83;1.40;;;13.30;58.50;;;;;;5026128;28;20037;-82
2022/10/20 10:03:21;;;;;;;2.15;1.52;;;13.20;58.60;;;;;;5025472;28;20033;-79
2022/10/20 10:05:56;;;;;;;1.92;1.25;;;13.20;58.60;;;;;;5035761;28;20037;-77
2022/10/20 10:08:25;;;;;;;1.70;1.60;;;13.10;58.60;;;;;;5024877;28;20033;-78
2022/10/20 10:11:15;;;;;;;2.22;1.50;;;13.10;58.40;;;;;;5026246;28;20411;-78
2022/10/20 10:13:44;;;;;;;3.45;1.42;;;13.10;58.60;;;;;;5018507;28;20099;-77
2022/10/20 10:16:14;;;;;;;1.80;1.30;;;13.00;59.00;;;;;;5026518;28;20400;-78
2022/10/20 10:18:42;;;;;;;1.20;1.10;;;13.10;59.90;;;;;;5025743;28;20121;-78
2022/10/20 10:21:10;;;;;;;1.30;1.10;;;13.10;60.40;;;;;;5025382;28;20033;-78
2022/10/20 10:23:51;;;;;;;2.78;1.20;;;13.10;60.30;;;;;;5006834;28;20037;-77
2022/10/20 10:26:36;;;;;;;3.28;0.95;;;13.10;60.40;;;;;;5023903;28;20451;-77
2022/10/20 10:29:02;;;;;;;1.90;1.02;;;13.10;60.90;;;;;;5019709;28;20053;-78
2022/10/20 10:31:31;;;;;;;1.50;1.20;;;13.10;60.60;;;;;;5024868;28;20450;-78
2022/10/20 10:34:42;;;;;;;2.05;1.10;;;13.10;59.80;;;;;;5024220;28;20470;-78
2022/10/20 10:37:14;;;;;;;1.20;0.98;;;13.00;59.80;;;;;;5023597;28;20095;-79
2022/10/20 10:39:41;;;;;;;1.70;0.77;;;13.10;60.60;;;;;;5023656;28;20037;-78
2022/10/20 10:42:15;;;;;;;2.15;1.02;;;13.00;60.40;;;;;;5007622;28;20184;-78
2022/10/20 10:44:58;;;;;;;1.35;1.20;;;13.00;60.20;;;;;;5024195;28;20034;-78
2022/10/20 10:47:36;;;;;;;1.50;1.17;;;13.00;60.00;;;;;;5025387;28;20041;-78
2022/10/20 10:50:26;;;;;;;1.15;0.93;;;13.00;59.30;;;;;;5024030;28;20034;-77
2022/10/20 10:53:16;;;;;;;1.35;0.77;;;13.00;59.20;;;;;;5025266;28;20026;-78
2022/10/20 10:56:20;;;;;;;1.02;0.85;;;12.90;59.20;;;;;;5007480;28;20025;-78
2022/10/20 10:58:49;;;;;;;3.00;1.23;;;12.90;59.40;;;;;;5001950;28;20045;-78
2022/10/20 11:01:45;;;;;;;1.80;1.08;;;12.90;59.40;;;;;;5008068;28;20044;-78
2022/10/20 11:04:35;;;;;;;2.53;1.15;;;12.80;59.50;;;;;;5024581;28;20042;-78
2022/10/20 11:07:30;;;;;;;3.25;1.20;;;12.80;59.50;;;;;;5023744;28;20045;-78
2022/10/20 11:10:15;;;;;;;0.95;0.85;;;12.80;60.10;;;;;;5006631;28;20065;-77
2022/10/20 11:13:10;;;;;;;1.08;0.98;;;12.80;59.90;;;;;;5008384;28;20038;-78
2022/10/20 11:15:54;;;;;;;3.47;1.00;;;12.70;59.80;;;;;;5024454;28;20088;-77
2022/10/20 11:18:38;;;;;;;2.45;1.00;;;12.70;60.00;;;;;;5024810;28;20045;-78
2022/10/20 11:21:23;;;;;;;1.90;0.90;;;12.70;59.70;;;;;;5023758;28;20508;-78
2022/10/20 11:23:49;;;;;;;1.05;0.95;;;12.70;60.00;;;;;;5003121;28;20069;-77
2022/10/20 11:26:34;;;;;;;2.40;1.08;;;12.70;60.00;;;;;;5006777;28;20625;-78
2022/10/20 11:29:03;;;;;;;5.82;4.05;;;12.70;60.10;;;;;;5022189;28;20052;-78
2022/10/20 11:31:53;;;;;;;6.50;4.60;;;12.70;60.40;;;;;;5025067;28;20526;-77
2022/10/20 11:34:34;;;;;;;2.60;2.00;;;12.70;60.30;;;;;;5016528;28;20059;-80
2022/10/20 11:37:19;;;;;;;3.08;1.80;;;12.70;60.20;;;;;;5024477;28;20041;-77
2022/10/20 11:39:55;;;;;;;1.23;1.10;;;12.70;60.20;;;;;;5025165;28;20095;-77
2022/10/20 11:42:56;;;;;;;1.25;1.15;;;12.70;60.10;;;;;;5025414;28;20045;-76
2022/10/20 11:45:54;;;;;;;0.80;0.80;;;12.70;60.20;;;;;;5028478;28;20091;-75
2022/10/20 11:48:26;;;;;;;2.20;0.90;;;12.60;60.00;;;;;;5026280;28;20040;-75
2022/10/20 11:51:23;;;;;;;3.10;0.80;;;12.60;59.70;;;;;;5026966;28;20119;-74
2022/10/20 11:54:26;;;;;;;0.90;0.60;;;12.60;60.00;;;;;;5031927;28;20036;-76
2022/10/20 11:57:15;;;;;;;1.35;0.45;;;12.60;60.00;;;;;;5030719;28;20040;-75
2022/10/20 11:59:54;;;;;;;2.22;0.95;;;12.60;59.50;;;;;;5031804;28;20053;-76
2022/10/20 12:02:47;;;;;;;0.98;0.85;;;12.60;60.00;;;;;;5031855;28;20558;-74
2022/10/20 12:05:50;;;;;;;1.10;0.77;;;12.60;60.20;;;;;;5028378;28;20030;-73
2022/10/20 12:08:20;;;;;;;0.98;0.80;;;12.60;60.70;;;;;;5025512;28;20072;-74
2022/10/20 12:11:13;;;;;;;2.45;0.70;;;12.60;61.70;;;;;;5031745;28;20471;-75
2022/10/20 12:14:14;;;;;;;0.90;0.70;;;12.60;61.80;;;;;;5030423;28;20044;-75
2022/10/20 12:16:54;;;;;;;1.95;0.60;;;12.70;62.20;;;;;;5030570;28;20045;-75
2022/10/20 12:19:24;;;;;;;1.23;0.82;;;12.70;62.00;;;;;;5030536;28;20041;-78
2022/10/20 12:22:04;;;;;;;1.48;0.70;;;12.70;61.50;;;;;;5022943;28;20032;-79
2022/10/20 12:24:34;;;;;;;0.88;0.57;;;12.70;61.40;;;;;;5028284;28;20056;-78
2022/10/20 12:27:09;;;;;;;0.70;0.60;;;12.70;61.70;;;;;;5028089;28;20547;-77
2022/10/20 12:29:35;;;;;;;1.52;0.80;;;12.70;62.00;;;;;;5027310;28;20034;-78
2022/10/20 12:32:39;;;;;;;2.17;0.85;;;12.70;62.10;;;;;;5025918;28;20102;-78
2022/10/20 12:35:10;;;;;;;1.27;0.98;;;12.70;62.30;;;;;;5026548;28;20523;-78
2022/10/20 12:37:37;;;;;;;1.58;0.85;;;12.80;62.00;;;;;;5026861;28;20492;-76
2022/10/20 12:40:06;;;;;;;2.00;0.60;;;12.80;61.50;;;;;;5027182;28;20068;-77
2022/10/20 12:42:46;;;;;;;1.27;0.80;;;12.80;61.20;;;;;;5027143;28;20065;-78
2022/10/20 12:45:18;;;;;;;1.00;0.70;;;12.70;60.80;;;;;;5027632;28;20030;-79
2022/10/20 12:47:49;;;;;;;1.08;0.70;;;12.70;60.60;;;;;;5026779;28;20037;-76
2022/10/20 12:50:21;;;;;;;5.68;0.80;;;12.70;60.30;;;;;;5027036;28;20034;-76
2022/10/20 12:52:47;;;;;;;1.50;0.60;;;12.70;60.30;;;;;;5026452;28;20160;-76
2022/10/20 12:55:26;;;;;;;0.57;0.40;;;12.70;60.50;;;;;;5026599;28;20034;-76
2022/10/20 12:58:10;;;;;;;0.68;0.68;;;12.70;60.40;;;;;;5026650;28;20500;-75
2022/10/20 13:00:36;;;;;;;3.65;0.60;;;12.70;60.80;;;;;;5025891;28;20025;-75
2022/10/20 13:03:21;;;;;;;2.33;0.80;;;12.70;60.30;;;;;;5024510;28;20034;-76
2022/10/20 13:05:47;;;;;;;0.82;0.60;;;12.70;60.50;;;;;;5026150;28;20088;-75
2022/10/20 13:08:22;;;;;;;1.35;0.70;;;12.70;60.70;;;;;;5026377;28;20531;-75
2022/10/20 13:10:49;;;;;;;0.70;0.70;;;12.70;60.60;;;;;;5022460;28;20032;-75
2022/10/20 13:13:18;;;;;;;1.75;1.00;;;12.70;60.90;;;;;;5025275;28;20407;-76